AirNav   Duncan Aviation - Near you to keep you flying
 
 1666 users online  

8NE4 Bornemeier Airstrip
Elmwood, Nebraska, USA

GOING TO ELMWOOD?


FAA INFORMATION EFFECTIVE 07 OCTOBER 2021

Location

FAA Identifier: 8NE4
Lat/Long: 40-52-04.0000N 096-17-05.0000W
40-52.066667N 096-17.083333W
40.8677778,-96.2847222
(estimated)
Elevation: 1292 ft. / 394 m (estimated)
Variation: 06E (1985)
From city: 1 mile N of ELMWOOD, NE
Time zone: UTC -5 (UTC -6 during Standard Time)
Zip code: 68349

Airport Operations

Airport use: Private use. Permission required prior to landing
Activation date: 02/1978
Control tower: no
ARTCC: MINNEAPOLIS CENTER
FSS: COLUMBUS FLIGHT SERVICE STATION
Attendance: DAWN-DUSK
Wind indicator: yes
Segmented circle: no

Airport Communications

WX AWOS-3 at PMV (17 nm E): 118.975 (402-298-7524)

Nearby radio navigation aids

VOR radial/distance  VOR name  Freq  Var
LNKr090/21.0LINCOLN VORTAC116.1009E
OVRr226/30.6OMAHA VORTAC116.3008E

 
NDB name  Hdg/Dist  Freq  Var  ID
PLATTSMOUTH250/17.532905EPMV .--. -- ...-
NEBRASKA CITY304/24.934705EAFK .- ..-. -.-
WAHOO142/26.440006EAHQ .- .... --.-

Airport Services

Runway Information

Runway 12/30

Dimensions: 1800 x 75 ft. / 549 x 23 m
Surface: turf
RUNWAY 12  RUNWAY 30
Traffic pattern: leftleft
Obstructions: pline, 500 ft. from runwaynone

Airport Ownership and Management from official FAA records

Ownership: Privately-owned
Owner: JOEL BORNEMEIER
ELMWOOD, NE 68349
Phone 402-994-4605
Manager: JOEL BORNEMEIER
ELMWOOD, NE 68349
Phone 402-994-4605

Airport Operational Statistics

Aircraft based on the field: 2
Single engine airplanes: 2
    

Additional Remarks

FOR CD CTC OMAHA APCH AT 402-682-4395.

Instrument Procedures

There are no published instrument procedures at 8NE4.

Some nearby airports with instrument procedures:

KPMV - Plattsmouth Municipal Airport/Douglas V Duey Field (17 nm E)
KMLE - Millard Airport (21 nm N)
KLNK - Lincoln Airport (22 nm W)
KOFF - Offutt Air Force Base (23 nm NE)
KAFK - Nebraska City Municipal Airport (25 nm SE)
 
Loc | Ops | Rwys | IFR | FBO | Links
Com | Nav | Svcs | Stats | Notes
Area around 8NE4 (Bornemeier Airstrip)
 
Road maps at: MapQuest Bing Google
 
Aerial photo
No photo
 
Sectional chart

 
Airport distance calculator
Flying to Bornemeier Airstrip? Find the distance to fly.

From to 8NE4

Sunrise and sunset
Times for 19-Oct-2021
 Local
(UTC-5)
 Zulu
(UTC)
Morning civil twilight07:1412:14
Sunrise07:4212:42
Sunset18:3823:38
Evening civil twilight19:0600:06

Current date and time
Zulu (UTC)  19-Oct-2021 16:00:47
Local (UTC-5)  19-Oct-2021 11:00:47
 
METAR
KPMV 
17nm E 
191535Z AUTO 16012G20KT 10SM CLR 18/08 A2991 RMK AO2 T01750084
KMLE 
21nm N 
191535Z AUTO 16011KT 10SM CLR 17/08 A2990 RMK AO2 T01740080
KLNK 
22nm W 
191554Z 18015G21KT 10SM CLR 19/08 A2988 RMK AO2 SLP113 T01890078
KOFF 
22nm NE 
191456Z AUTO 17010KT 10SM M 16/07 A2993 RMK AO2 SLP138 T01560074 53006 PWINO PNO FZRANO TSNO VISNO RWY12 CHINO RWY12 $
KAFK 
25nm SE 
191535Z AUTO 18017G22KT 10SM CLR 18/08 A2992 RMK AO2 T01750081
KAHQ 
26nm NW 
191535Z AUTO 17014KT 10SM CLR 17/08 A2988 RMK AO2 T01680076
KOMA 
32nm NE 
191552Z 17015G24KT 10SM FEW120 18/08 A2990 RMK AO2 SLP122 T01830083
KCBF 
33nm NE 
191555Z AUTO 17011KT 10SM CLR 18/08 A2989 RMK AO2
KBTA 
34nm N 
191555Z AUTO 16016G19KT 10SM CLR 17/08 A2989 RMK AO2 T01670078
TAF
KLNK 
22nm W 
191120Z 1912/2012 17011KT P6SM FEW100 FM191700 17015G24KT P6SM SCT250 FM200000 16011KT P6SM FEW050 SCT100
NOTAMs
Click for the latest NOTAMs
NOTAMs are issued by the DoD/FAA and will open in a separate window not controlled by AirNav.

 

 
 

Would you like to see your business listed on this page?

 If your business provides an interesting product or service to pilots, flight crews, aircraft, or users of the Bornemeier Airstrip, you should consider listing it here.  To start the listing process, click on the button below
 
Add a business
 

Other Pages about Bornemeier Airstrip

Update a link
 
Copyright © AirNav, LLC. All rights reserved. Privacy Policy  Contact